Pagina principale
METAR-TAF:

METAR-TAF

Aeroporti :

Bíldudalur, Islanda

latitudine: 65-38-30N, longitudine: 23-32-45W, altezza: 8 m

Osservazione

Il bollettino è stato emesso 24 minuti fa, alle 17:22 UTC
Vento 6 kt da sud-ovest
Temperature 0°C
Umidità 80%
Pressione 985 hPa
Visibilità 10 km o più
Nubi sparse ad un'altezza di 4000 ft

METAR: BIBD 241722Z 22006KT 9999 SCT040 00/M03 Q0985

Ora: 17:46 (17:46 UTC)

Previsione

Il bollettino è stato emesso 4 ore e 48 minuti fa, alle 12:58 UTC
Previsione valida dal 24 alle 14 UTC al 24 alle 23 UTC
Vento 6 kt da sud/sud-ovest
Visibilità 10 km o più
Nubi sparse ad un'altezza di 1800 ft
Nuvoloso ad un'altezza di 2500 ft
Temporaneamente
dal 24 alle 14 UTC al 24 alle 23 UTC
Visibilità: 2000 m
ad un'altezza di 400 ft
rovesci di neve

TAF: BIBD 241258Z 2414/2423 21006KT 9999 SCT018 BKN025 TEMPO 2414/2423 2000 SHSN VV004

Osservazioni e previsioni meteorologiche di più di 4000 aeroporti (messaggi METAR e TAF).

Le stazioni disponibili sono rappresentate dai dischi gialli e rossi sulla carta.

Puntare il mouse per vedere il nome della stazione.

Clicca sopra per visualizzare le osservazioni e previsioni meteorologiche.

Per cambiare la mappa : fare clic sui pulsanti verdi con una croce nera per ingrandire, il pulsante verde con un trattino per diminuire, o sulla freccia verde per le mappe adiacenti.


METAR-TAF: